地図

経路データ

SID SEASON NUMBER BASIN SUBBASIN NAME ISO_TIME NATURE LAT LON WMO_WIND WMO_PRES WMO_AGENCY TRACK_TYPE DIST2LAND LANDFALL IFLAG USA_AGENCY USA_ATCF_ID USA_LAT USA_LON USA_RECORD USA_STATUS USA_WIND USA_PRES USA_SSHS USA_R34_NE USA_R34_SE USA_R34_SW USA_R34_NW USA_R50_NE USA_R50_SE USA_R50_SW USA_R50_NW USA_R64_NE USA_R64_SE USA_R64_SW USA_R64_NW USA_POCI USA_ROCI USA_RMW USA_EYE TOKYO_LAT TOKYO_LON TOKYO_GRADE TOKYO_WIND TOKYO_PRES TOKYO_R50_DIR TOKYO_R50_LONG TOKYO_R50_SHORT TOKYO_R30_DIR TOKYO_R30_LONG TOKYO_R30_SHORT TOKYO_LAND CMA_LAT CMA_LON CMA_CAT CMA_WIND CMA_PRES HKO_LAT HKO_LON HKO_CAT HKO_WIND HKO_PRES NEWDELHI_LAT NEWDELHI_LON NEWDELHI_GRADE NEWDELHI_WIND NEWDELHI_PRES NEWDELHI_CI NEWDELHI_DP NEWDELHI_POCI REUNION_LAT REUNION_LON REUNION_TYPE REUNION_WIND REUNION_PRES REUNION_TNUM REUNION_CI REUNION_RMW REUNION_R34_NE REUNION_R34_SE REUNION_R34_SW REUNION_R34_NW REUNION_R50_NE REUNION_R50_SE REUNION_R50_SW REUNION_R50_NW REUNION_R64_NE REUNION_R64_SE REUNION_R64_SW REUNION_R64_NW BOM_LAT BOM_LON BOM_TYPE BOM_WIND BOM_PRES BOM_TNUM BOM_CI BOM_RMW BOM_R34_NE BOM_R34_SE BOM_R34_SW BOM_R34_NW BOM_R50_NE BOM_R50_SE BOM_R50_SW BOM_R50_NW BOM_R64_NE BOM_R64_SE BOM_R64_SW BOM_R64_NW BOM_ROCI BOM_POCI BOM_EYE BOM_POS_METHOD BOM_PRES_METHOD NADI_LAT NADI_LON NADI_CAT NADI_WIND NADI_PRES WELLINGTON_LAT WELLINGTON_LON WELLINGTON_WIND WELLINGTON_PRES DS824_LAT DS824_LON DS824_STAGE DS824_WIND DS824_PRES TD9636_LAT TD9636_LON TD9636_STAGE TD9636_WIND TD9636_PRES TD9635_LAT TD9635_LON TD9635_WIND TD9635_PRES TD9635_ROCI NEUMANN_LAT NEUMANN_LON NEUMANN_CLASS NEUMANN_WIND NEUMANN_PRES MLC_LAT MLC_LON MLC_CLASS MLC_WIND MLC_PRES USA_GUST BOM_GUST BOM_GUST_PER REUNION_GUST REUNION_GUST_PER USA_SEAHGT USA_SEARAD_NE USA_SEARAD_SE USA_SEARAD_SW USA_SEARAD_NW STORM_SPEED STORM_DIR
1981353S11169 1982 117 SP MM GYAN 1981-12-19 09:00:00 NR -11.1610 168.783 spur-other 458 398 ______________ -1 12 221
1981353S11169 1982 117 SP MM GYAN 1981-12-19 12:00:00 NR -11.6000 168.400 40 990 wellington spur-other 398 338 ________O_____ -1 -11.6000 168.400 40 990 12 221
1981353S11169 1982 117 SP MM GYAN 1981-12-19 15:00:00 NR -12.0639 167.992 spur-other 328 269 ________P_____ -1 -12.0927 167.989 41 989 12 220
1981353S11169 1982 117 SP MM GYAN 1981-12-19 18:00:00 NR -12.5374 167.585 spur-other 269 201 ________P_____ -1 -12.5681 167.582 42 988 12 220
1981353S11169 1982 117 SP MM GYAN 1981-12-19 21:00:00 NR -12.9921 167.186 spur-other 201 147 ________P_____ -1 -13.0094 167.183 43 987 12 222
1981353S11169 1982 117 SP MM GYAN 1981-12-20 00:00:00 NR -13.4000 166.800 45 987 wellington spur-other 147 112 ________O_____ -1 -13.4000 166.800 45 987 10 225
1981353S11169 1982 117 SP MM GYAN 1981-12-20 03:00:00 NR -13.7291 166.435 spur-other 114 89 ________P_____ -1 -13.7291 166.435 47 985 9 229
1981353S11169 1982 117 SP MM GYAN 1981-12-20 06:00:00 NR -14.0096 166.084 spur-other 95 93 ________P_____ -1 -14.0096 166.084 50 983 9 232
1981353S11169 1982 117 SP MM GYAN 1981-12-20 09:00:00 NR -14.2604 165.741 spur-other 102 102 ________P_____ -1 -14.2604 165.741 52 981 8 234
1981353S11169 1982 117 SP MM GYAN 1981-12-20 12:00:00 NR -14.5000 165.400 55 980 wellington spur-other 123 123 ________O_____ -1 -14.5000 165.400 55 980 8 233
1981353S11169 1982 117 SP MM GYAN 1981-12-20 15:00:00 NR -14.7570 165.054 spur-other 150 150 ________P_____ -1 -14.7570 165.054 57 977 8 233
1981353S11169 1982 117 SP MM GYAN 1981-12-20 18:00:00 NR -15.0072 164.707 spur-other 194 194 ________P_____ -1 -15.0072 164.707 60 975 8 234
1981353S11169 1982 117 SP MM GYAN 1981-12-20 21:00:00 NR -15.2538 164.357 spur-other 232 232 ________P_____ -1 -15.2538 164.357 62 972 8 234
1981353S11169 1982 117 SP MM GYAN 1981-12-21 00:00:00 NR -15.5000 164.000 65 970 wellington spur-other 278 278 ________O_____ -1 -15.5000 164.000 65 970 9 236
1981353S11169 1982 117 SP MM GYAN 1981-12-21 03:00:00 NR -15.7543 163.592 spur-other 324 324 ________P_____ -1 -15.7481 163.634 66 968 9 237
1981353S11169 1982 117 SP MM GYAN 1981-12-21 06:00:00 NR -16.0079 163.183 spur-other 370 370 ________P_____ -1 -15.9981 163.261 67 967 9 236
1981353S11169 1982 117 SP MM GYAN 1981-12-21 09:00:00 NR -16.2575 162.807 spur-other 418 418 ________P_____ -1 -16.2490 162.882 68 966 8 233
1981353S11169 1982 117 SP MM GYAN 1981-12-21 12:00:00 NR -16.5000 162.500 70 965 wellington spur-other 447 435 ________O_____ -1 -16.5000 162.500 70 965 7 227
1981353S11169 1982 117 SP MM GYAN 1981-12-21 15:00:00 NR -16.7277 162.282 spur-other 435 420 ______________ -1 6 218
1981353S11169 1982 117 SP MM GYAN 1981-12-21 18:00:00 NR -16.9496 162.137 spur-other 425 ______________ -1 5 211

デジタル台風データ・検索

IBTrACS Databaseについて

本データベースは、米国NOAAが公開する1842年以降の世界の熱帯低気圧のベストトラックデータアーカイブInternational Best Track Archive for Climate Stewardship (IBTrACS)を、ウェブで閲覧しやすい形式に変換したものです。

最終更新日:2021-10-08